createdAt,value
2018-12-08T00:00:40.584Z,84.35
2018-12-08T00:03:21.410Z,84.63
2018-12-08T00:05:58.665Z,84.43
2018-12-08T00:08:39.431Z,84.11
2018-12-08T00:11:18.277Z,84.31
2018-12-08T00:13:56.876Z,84.62
2018-12-08T00:16:38.500Z,84.67
2018-12-08T00:22:22.294Z,84.31
2018-12-08T00:25:01.036Z,84.62
2018-12-08T00:27:39.510Z,84.27
2018-12-08T00:30:27.823Z,84.53
2018-12-08T00:33:09.451Z,84.21
2018-12-08T00:35:50.469Z,84.71
2018-12-08T00:38:30.370Z,84.51
2018-12-08T00:41:08.604Z,84.31
2018-12-08T00:46:49.874Z,84.16
2018-12-08T00:49:28.152Z,83.99
2018-12-08T00:52:08.989Z,83.54
2018-12-08T00:54:45.635Z,83.63
2018-12-08T00:57:26.534Z,83.60
2018-12-08T01:00:03.737Z,83.46
2018-12-08T01:05:52.526Z,83.09
2018-12-08T01:08:33.854Z,83.15
2018-12-08T01:11:12.892Z,83.36
2018-12-08T01:13:54.582Z,83.27
2018-12-08T01:19:34.698Z,83.19
2018-12-08T01:22:16.561Z,83.03
2018-12-08T01:24:57.724Z,83.61
2018-12-08T01:27:40.935Z,83.17
2018-12-08T01:33:22.698Z,83.51
2018-12-08T01:36:03.534Z,83.37
2018-12-08T01:38:45.006Z,83.45
2018-12-08T01:41:23.748Z,83.14
2018-12-08T01:44:02.294Z,83.37
2018-12-08T01:46:41.394Z,83.21
2018-12-08T01:49:23.094Z,82.96
2018-12-08T01:52:05.097Z,83.38
2018-12-08T01:54:43.621Z,83.46
2018-12-08T02:00:27.467Z,83.15
2018-12-08T02:06:11.264Z,83.11
2018-12-08T02:08:52.657Z,82.96
2018-12-08T02:11:33.807Z,82.44
2018-12-08T02:14:14.606Z,82.93
2018-12-08T02:16:55.358Z,82.72
2018-12-08T02:19:36.563Z,82.29
2018-12-08T02:22:13.654Z,82.63
2018-12-08T02:24:54.573Z,82.12
2018-12-08T02:30:36.462Z,81.97
2018-12-08T02:33:14.982Z,82.18
2018-12-08T02:35:54.191Z,82.39
2018-12-08T02:38:36.679Z,82.41
2018-12-08T02:44:18.439Z,82.43
2018-12-08T02:46:57.459Z,82.37
2018-12-08T02:49:40.847Z,82.78
2018-12-08T02:52:19.353Z,82.41
2018-12-08T02:54:58.223Z,82.41
2018-12-08T02:57:37.571Z,81.82
2018-12-08T03:00:19.122Z,82.08
2018-12-08T03:02:58.062Z,82.07
2018-12-08T03:05:35.390Z,81.77
2018-12-08T03:11:17.659Z,81.47
2018-12-08T03:13:56.081Z,81.72
2018-12-08T03:19:45.921Z,81.63
2018-12-08T03:25:30.059Z,81.62
2018-12-08T03:31:09.636Z,82.05
2018-12-08T03:33:48.409Z,81.91
2018-12-08T03:36:23.737Z,81.45
2018-12-08T03:38:59.186Z,81.82
2018-12-08T03:41:34.828Z,81.37
2018-12-08T03:44:10.319Z,80.99
2018-12-08T03:46:45.558Z,81.48
2018-12-08T03:49:20.892Z,80.97
2018-12-08T03:51:56.113Z,81.47
2018-12-08T03:54:37.484Z,81.77
2018-12-08T03:57:12.707Z,81.58
2018-12-08T03:59:47.893Z,81.99
2018-12-08T04:02:23.093Z,81.55
2018-12-08T04:04:58.521Z,81.63
2018-12-08T04:07:34.002Z,81.26
2018-12-08T04:10:12.594Z,81.06
2018-12-08T04:12:48.015Z,81.35
2018-12-08T04:15:23.351Z,80.75
2018-12-08T04:17:58.586Z,80.90
2018-12-08T04:20:34.146Z,80.80
2018-12-08T04:23:09.344Z,80.68
2018-12-08T04:25:44.755Z,80.77
2018-12-08T04:28:20.205Z,80.27
2018-12-08T04:30:55.478Z,80.31
2018-12-08T04:33:30.732Z,80.15
2018-12-08T04:36:06.098Z,80.21
2018-12-08T04:38:41.314Z,80.36
2018-12-08T04:41:16.668Z,80.15
2018-12-08T04:43:51.922Z,79.89
2018-12-08T04:46:27.236Z,79.56
2018-12-08T04:49:02.569Z,79.67
2018-12-08T04:51:39.153Z,80.04
2018-12-08T04:54:16.326Z,79.76
2018-12-08T04:56:57.451Z,79.77
2018-12-08T04:59:38.281Z,79.83
2018-12-08T05:02:29.354Z,79.86
2018-12-08T05:05:05.046Z,79.92
2018-12-08T05:07:44.221Z,79.92
2018-12-08T05:10:33.862Z,79.90
2018-12-08T05:13:12.336Z,80.20
2018-12-08T05:18:59.862Z,79.89
2018-12-08T05:24:40.499Z,80.35
2018-12-08T05:27:25.366Z,80.47
2018-12-08T05:30:20.441Z,80.26
2018-12-08T05:32:55.708Z,80.09
2018-12-08T05:38:36.576Z,80.46
2018-12-08T05:41:11.843Z,80.21
2018-12-08T05:43:47.078Z,80.29
2018-12-08T05:46:34.757Z,80.26
2018-12-08T05:49:21.170Z,80.08
2018-12-08T05:51:56.501Z,80.21
2018-12-08T05:54:31.778Z,80.21
2018-12-08T05:57:06.979Z,79.64
2018-12-08T05:59:45.372Z,79.42
2018-12-08T06:02:24.584Z,79.72
2018-12-08T06:08:00.528Z,79.08
2018-12-08T06:10:35.896Z,78.92
2018-12-08T06:13:11.339Z,79.35
2018-12-08T06:15:52.848Z,79.19
2018-12-08T06:24:45.623Z,79.09
2018-12-08T06:27:29.147Z,78.65
2018-12-08T06:30:04.968Z,78.98
2018-12-08T06:32:40.204Z,79.06
2018-12-08T06:35:15.467Z,79.08
2018-12-08T06:37:50.823Z,79.24
2018-12-08T06:40:29.300Z,78.71
2018-12-08T06:43:03.487Z,78.99
2018-12-08T06:45:38.889Z,78.79
2018-12-08T06:48:24.497Z,79.15
2018-12-08T06:50:59.776Z,79.61
2018-12-08T06:53:47.261Z,79.93
2018-12-08T06:56:22.493Z,80.49
2018-12-08T06:58:57.859Z,81.15
2018-12-08T07:01:33.103Z,81.65
2018-12-08T07:04:08.318Z,82.04
2018-12-08T07:06:43.579Z,82.41
2018-12-08T07:09:18.994Z,82.22
2018-12-08T07:11:54.396Z,82.45
2018-12-08T07:14:34.809Z,82.25
2018-12-08T07:17:10.234Z,82.40
2018-12-08T07:19:45.621Z,82.78
2018-12-08T07:22:21.112Z,83.24
2018-12-08T07:24:56.528Z,83.49
2018-12-08T07:27:32.005Z,83.58
2018-12-08T07:30:09.799Z,83.50
2018-12-08T07:32:45.196Z,83.30
2018-12-08T07:35:20.411Z,83.56
2018-12-08T07:37:55.803Z,83.46
2018-12-08T07:40:31.165Z,83.43
2018-12-08T07:43:06.506Z,83.17
2018-12-08T07:45:41.885Z,82.97
2018-12-08T07:48:22.340Z,82.60
2018-12-08T07:50:57.793Z,82.61
2018-12-08T07:53:33.114Z,82.58
2018-12-08T07:56:08.410Z,82.23
2018-12-08T07:58:43.809Z,81.85
2018-12-08T08:01:19.237Z,81.73
2018-12-08T08:03:54.587Z,81.93
2018-12-08T08:06:29.809Z,81.88
2018-12-08T08:09:06.742Z,82.27
2018-12-08T08:11:42.120Z,82.01
2018-12-08T08:14:17.497Z,82.18
2018-12-08T08:16:52.917Z,82.29
2018-12-08T08:19:28.432Z,82.20
2018-12-08T08:22:03.828Z,82.28
2018-12-08T08:24:39.224Z,82.81
2018-12-08T08:27:14.568Z,82.94
2018-12-08T08:29:50.087Z,82.65
2018-12-08T08:32:25.482Z,83.04
2018-12-08T08:35:00.699Z,83.59
2018-12-08T08:37:35.951Z,83.47
2018-12-08T08:40:12.496Z,83.71
2018-12-08T08:42:47.680Z,84.73
2018-12-08T08:45:22.942Z,85.05
2018-12-08T08:47:58.289Z,85.36
2018-12-08T08:50:33.666Z,85.70
2018-12-08T08:53:09.024Z,85.48
2018-12-08T08:55:48.185Z,85.45
2018-12-08T08:58:30.553Z,85.62
2018-12-08T09:01:09.727Z,86.03
2018-12-08T09:03:45.008Z,86.25
2018-12-08T09:06:26.826Z,86.29
2018-12-08T09:09:02.113Z,86.36
2018-12-08T09:12:00.649Z,86.79
2018-12-08T09:14:35.844Z,87.32
2018-12-08T09:17:16.682Z,87.48
2018-12-08T09:22:51.053Z,87.37
2018-12-08T09:25:44.656Z,87.72
2018-12-08T09:28:26.940Z,87.93
2018-12-08T09:31:02.367Z,87.84
2018-12-08T09:33:37.687Z,87.90
2018-12-08T09:36:13.051Z,87.95
2018-12-08T09:38:49.639Z,87.85
2018-12-08T09:41:25.043Z,87.66
2018-12-08T09:44:00.601Z,87.54
2018-12-08T09:46:35.926Z,87.56
2018-12-08T09:49:11.325Z,87.69
2018-12-08T09:51:49.937Z,87.96
2018-12-08T09:54:25.522Z,87.94
2018-12-08T09:57:00.897Z,88.09
2018-12-08T10:02:42.465Z,88.69
2018-12-08T10:05:18.911Z,88.82
2018-12-08T10:07:54.305Z,88.75
2018-12-08T10:10:29.678Z,88.59
2018-12-08T10:13:05.214Z,88.72
2018-12-08T10:15:40.422Z,88.62
2018-12-08T10:18:15.804Z,88.57
2018-12-08T10:20:51.023Z,88.39
2018-12-08T10:23:26.326Z,88.58
2018-12-08T10:26:01.699Z,88.36
2018-12-08T10:28:37.918Z,87.74
2018-12-08T10:31:13.474Z,87.65
2018-12-08T10:33:48.963Z,87.33
2018-12-08T10:36:24.194Z,87.29
2018-12-08T10:38:59.574Z,86.72
2018-12-08T10:41:35.047Z,86.82
2018-12-08T10:44:10.500Z,87.32
2018-12-08T10:46:45.883Z,87.99
2018-12-08T10:49:21.188Z,88.14
2018-12-08T10:51:56.588Z,88.50
2018-12-08T10:54:33.904Z,89.23
2018-12-08T10:57:09.529Z,89.15
2018-12-08T10:59:44.907Z,89.26
2018-12-08T11:02:25.627Z,89.90
2018-12-08T11:05:00.856Z,90.09
2018-12-08T11:07:36.239Z,90.23
2018-12-08T11:10:12.638Z,90.13
2018-12-08T11:12:48.999Z,89.87
2018-12-08T11:15:25.366Z,89.79
2018-12-08T11:18:02.423Z,89.65
2018-12-08T11:20:37.894Z,89.36
2018-12-08T11:23:13.511Z,89.56
2018-12-08T11:25:48.704Z,89.70
2018-12-08T11:28:24.143Z,90.12
2018-12-08T11:30:59.447Z,89.96
2018-12-08T11:33:35.848Z,90.06
2018-12-08T11:36:11.175Z,90.06
2018-12-08T11:38:46.651Z,90.47
2018-12-08T11:41:21.847Z,90.44
2018-12-08T11:43:57.087Z,90.25
2018-12-08T11:46:32.375Z,90.82
2018-12-08T11:49:07.645Z,90.42
2018-12-08T11:51:43.020Z,90.86
2018-12-08T11:54:20.488Z,91.11
2018-12-08T11:56:55.855Z,90.93
2018-12-08T11:59:31.194Z,91.28
2018-12-08T12:02:06.592Z,91.25
2018-12-08T12:04:43.905Z,91.19
2018-12-08T12:07:19.359Z,91.42
2018-12-08T12:09:56.412Z,91.55
2018-12-08T12:12:44.415Z,91.27
2018-12-08T12:18:26.299Z,91.22
2018-12-08T12:21:06.869Z,91.08
2018-12-08T12:23:48.145Z,91.14
2018-12-08T12:26:24.819Z,91.09
2018-12-08T12:29:01.782Z,91.37
2018-12-08T12:31:36.988Z,91.35
2018-12-08T12:34:12.328Z,90.87
2018-12-08T12:36:48.913Z,91.14
2018-12-08T12:39:24.385Z,90.86
2018-12-08T12:47:42.722Z,90.97
2018-12-08T12:50:23.722Z,90.68
2018-12-08T12:53:05.089Z,90.78
2018-12-08T12:55:45.090Z,91.04
2018-12-08T12:58:23.897Z,90.76
2018-12-08T13:01:05.426Z,90.91
2018-12-08T13:03:46.551Z,90.33
2018-12-08T13:06:25.162Z,90.16
2018-12-08T13:09:02.140Z,90.11
2018-12-08T13:11:44.894Z,90.29
2018-12-08T13:14:26.388Z,90.20
2018-12-08T13:17:07.529Z,90.29
2018-12-08T13:19:48.651Z,90.25
2018-12-08T13:22:29.524Z,89.77
2018-12-08T13:25:21.584Z,89.90
2018-12-08T13:31:03.810Z,89.38
2018-12-08T13:33:46.087Z,89.49
2018-12-08T13:36:27.009Z,89.46
2018-12-08T13:42:13.651Z,89.10
2018-12-08T13:45:00.160Z,89.00
2018-12-08T13:47:41.607Z,88.88
2018-12-08T13:50:22.762Z,88.44
2018-12-08T13:53:04.452Z,88.06
2018-12-08T13:55:45.746Z,88.01
2018-12-08T13:58:26.714Z,87.55
2018-12-08T14:01:07.946Z,87.44
2018-12-08T14:03:44.907Z,87.13
2018-12-08T14:06:26.562Z,87.23
2018-12-08T14:09:08.293Z,87.03
2018-12-08T14:11:49.838Z,86.40
2018-12-08T14:14:35.941Z,86.08
2018-12-08T14:17:17.116Z,86.02
2018-12-08T14:19:52.310Z,86.26
2018-12-08T14:22:33.107Z,86.74
2018-12-08T14:25:08.345Z,87.42
2018-12-08T14:27:44.206Z,87.58
2018-12-08T14:30:19.535Z,87.60
2018-12-08T14:32:54.795Z,87.16
2018-12-08T14:35:30.160Z,87.13
2018-12-08T14:38:05.640Z,87.06
2018-12-08T14:40:40.938Z,87.55
2018-12-08T14:43:16.345Z,87.80
2018-12-08T14:45:51.629Z,87.92
2018-12-08T14:48:27.163Z,87.88
2018-12-08T14:51:02.753Z,87.64
2018-12-08T14:53:38.109Z,87.65
2018-12-08T14:56:13.791Z,87.04
2018-12-08T14:58:50.132Z,86.68
2018-12-08T15:01:25.513Z,86.14
2018-12-08T15:04:00.966Z,86.18
2018-12-08T15:06:54.644Z,85.52
2018-12-08T15:09:39.869Z,85.35
2018-12-08T15:12:20.860Z,84.90
2018-12-08T15:14:56.204Z,84.80
2018-12-08T15:20:34.622Z,84.16
2018-12-08T15:23:09.786Z,84.33
2018-12-08T15:25:45.004Z,83.94
2018-12-08T15:31:26.237Z,84.36
2018-12-08T15:34:01.634Z,84.34
2018-12-08T15:36:36.970Z,84.18
2018-12-08T15:39:12.606Z,84.30
2018-12-08T15:41:48.022Z,83.65
2018-12-08T15:44:23.547Z,83.54
2018-12-08T15:46:59.046Z,83.46
2018-12-08T15:49:34.343Z,83.16
2018-12-08T15:52:09.763Z,83.40
2018-12-08T15:54:44.961Z,83.22
2018-12-08T15:57:20.258Z,83.66
2018-12-08T16:03:01.496Z,84.51
2018-12-08T16:05:40.412Z,84.61
2018-12-08T16:08:22.482Z,84.70
2018-12-08T16:14:03.947Z,84.74
2018-12-08T16:16:45.050Z,84.90
2018-12-08T16:19:20.454Z,85.05
2018-12-08T16:28:13.716Z,85.41
2018-12-08T16:30:49.132Z,85.81
2018-12-08T16:33:24.565Z,86.65
2018-12-08T16:36:06.004Z,87.17
2018-12-08T16:41:44.714Z,88.12
2018-12-08T16:44:25.927Z,87.80
2018-12-08T16:47:01.271Z,87.64
2018-12-08T16:49:40.222Z,86.96
2018-12-08T16:52:31.956Z,86.93
2018-12-08T17:01:25.988Z,85.61
2018-12-08T17:07:01.423Z,85.79
2018-12-08T17:12:59.716Z,86.26
2018-12-08T17:18:44.697Z,86.40
2018-12-08T17:21:27.349Z,86.69
2018-12-08T17:24:02.521Z,87.27
2018-12-08T17:29:43.857Z,87.45
2018-12-08T17:32:19.095Z,87.45
2018-12-08T17:34:55.312Z,87.95
2018-12-08T17:37:30.788Z,87.71
2018-12-08T17:40:16.274Z,87.84
2018-12-08T17:42:57.299Z,87.28
2018-12-08T17:45:32.532Z,87.22
2018-12-08T17:48:17.589Z,87.17
2018-12-08T17:50:52.981Z,86.96
2018-12-08T17:53:31.618Z,86.57
2018-12-08T17:56:12.683Z,85.70
2018-12-08T17:58:48.057Z,85.44
2018-12-08T18:01:24.898Z,84.22
2018-12-08T18:07:06.061Z,82.84
2018-12-08T18:09:41.408Z,82.63
2018-12-08T18:18:26.166Z,81.21
2018-12-08T18:21:01.630Z,81.22
2018-12-08T18:23:43.040Z,80.60
2018-12-08T18:26:30.312Z,80.73
2018-12-08T18:29:23.831Z,80.82
2018-12-08T18:34:58.785Z,80.15
2018-12-08T18:37:34.128Z,80.37
2018-12-08T18:40:09.921Z,80.52
2018-12-08T18:43:01.410Z,80.36
2018-12-08T18:45:41.413Z,80.69
2018-12-08T18:48:16.983Z,80.71
2018-12-08T18:51:03.792Z,80.99
2018-12-08T18:59:53.824Z,80.63
2018-12-08T19:05:34.472Z,80.46
2018-12-08T19:08:10.079Z,80.96
2018-12-08T19:11:03.936Z,80.62
2018-12-08T19:13:48.248Z,80.40
2018-12-08T19:16:27.051Z,80.88
2018-12-08T19:19:24.751Z,80.64
2018-12-08T19:22:13.299Z,80.59
2018-12-08T19:27:54.119Z,80.50
2018-12-08T19:30:29.414Z,80.34
2018-12-08T19:33:14.512Z,80.22
2018-12-08T19:35:52.969Z,80.60
2018-12-08T19:38:46.040Z,80.81
2018-12-08T19:47:38.265Z,80.81
2018-12-08T19:50:16.817Z,80.52
2018-12-08T19:58:30.188Z,79.55
2018-12-08T20:01:09.604Z,79.47
2018-12-08T20:03:48.760Z,79.77
2018-12-08T20:09:29.973Z,79.28
2018-12-08T20:12:05.362Z,79.18
2018-12-08T20:14:40.704Z,79.06
2018-12-08T20:17:15.911Z,79.03
2018-12-08T20:19:51.528Z,79.13
2018-12-08T20:22:26.889Z,79.22
2018-12-08T20:25:02.396Z,79.38
2018-12-08T20:27:37.732Z,79.60
2018-12-08T20:30:13.097Z,79.84
2018-12-08T20:32:48.527Z,79.40
2018-12-08T20:35:23.722Z,79.90
2018-12-08T20:37:58.984Z,80.04
2018-12-08T20:43:39.862Z,80.20
2018-12-08T20:46:15.240Z,80.80
2018-12-08T20:48:54.378Z,82.49
2018-12-08T20:51:29.619Z,84.00
2018-12-08T20:54:05.023Z,84.99
2018-12-08T20:56:40.344Z,86.27
2018-12-08T20:59:15.881Z,87.02
2018-12-08T21:01:51.185Z,87.50
2018-12-08T21:04:26.414Z,88.08
2018-12-08T21:07:01.866Z,88.35
2018-12-08T21:09:37.157Z,88.84
2018-12-08T21:12:12.459Z,89.17
2018-12-08T21:14:47.827Z,89.44
2018-12-08T21:17:23.182Z,89.83
2018-12-08T21:19:58.960Z,90.02
2018-12-08T21:22:34.341Z,89.88
2018-12-08T21:25:09.882Z,90.26
2018-12-08T21:27:45.266Z,90.61
2018-12-08T21:30:20.469Z,90.75
2018-12-08T21:32:55.750Z,90.39
2018-12-08T21:35:33.590Z,90.61
2018-12-08T21:38:09.206Z,90.53
2018-12-08T21:43:50.896Z,90.65
2018-12-08T21:46:32.435Z,91.06
2018-12-08T21:49:23.948Z,91.21
2018-12-08T21:52:15.996Z,90.75
2018-12-08T21:55:03.190Z,91.10
2018-12-08T21:57:38.418Z,91.32
2018-12-08T22:00:13.862Z,91.17
2018-12-08T22:02:49.513Z,91.38
2018-12-08T22:05:24.785Z,91.52
2018-12-08T22:08:02.194Z,91.25
2018-12-08T22:10:37.538Z,91.67
2018-12-08T22:13:12.725Z,91.59
2018-12-08T22:15:48.878Z,91.56
2018-12-08T22:18:24.191Z,91.75
2018-12-08T22:21:00.957Z,91.88
2018-12-08T22:23:36.430Z,91.68
2018-12-08T22:26:11.693Z,91.93
2018-12-08T22:28:47.150Z,91.78
2018-12-08T22:31:22.511Z,91.71
2018-12-08T22:33:57.840Z,92.01
2018-12-08T22:36:33.082Z,91.79
2018-12-08T22:39:08.486Z,91.97
2018-12-08T22:41:43.739Z,92.25
2018-12-08T22:44:19.124Z,91.85
2018-12-08T22:46:54.477Z,92.05
2018-12-08T22:49:29.811Z,92.16
2018-12-08T22:52:05.315Z,92.32
2018-12-08T22:54:47.943Z,92.68
2018-12-08T22:57:24.004Z,92.31
2018-12-08T22:59:59.277Z,92.54
2018-12-08T23:02:34.665Z,92.54
2018-12-08T23:05:11.307Z,92.36
2018-12-08T23:07:46.680Z,92.62
2018-12-08T23:10:21.926Z,92.25
2018-12-08T23:12:57.349Z,92.51
2018-12-08T23:15:32.803Z,92.50
2018-12-08T23:18:07.961Z,92.27
2018-12-08T23:20:43.406Z,91.82
2018-12-08T23:23:18.791Z,91.84
2018-12-08T23:25:54.165Z,91.76
2018-12-08T23:28:29.384Z,91.87
2018-12-08T23:31:04.751Z,91.74
2018-12-08T23:33:40.188Z,91.32
2018-12-08T23:36:15.543Z,91.07
2018-12-08T23:38:50.779Z,91.31
2018-12-08T23:41:25.965Z,91.13
2018-12-08T23:44:01.378Z,90.91
2018-12-08T23:46:36.645Z,91.05
2018-12-08T23:49:13.273Z,90.94
2018-12-08T23:51:48.713Z,91.14
2018-12-08T23:54:23.912Z,90.90
2018-12-08T23:56:59.448Z,90.79
2018-12-08T23:59:34.786Z,90.70
